Fowler, California
Current Conditions -  °F | °C
As of 9:53 PM on Wednesday 28 Jan 2015 (Local Time) from KFAT Reporting Station
Haze Haze  
Wind Chill: 51°   Ceiling: Unl
Heat Index: 51°   Visibility: 4mi
Dew Point: 49°   Wind: 0mph
Humidity: 92%   Direction: NA
Pressure: 30.19"   Gusts: NA
Location:  36.63°N, 119.68°W
Report Text: KFAT 290553Z 00000KT 4SM BR SCT130 11/09 A3019 RMK AO2 SLP224 T01060094 10150 20100 50001
Loading
Personal Weather Stations






























Interactive Weather Map New forecast layout! Learn more

10-Day Weather Forecast

Advertisements
Track Severe Weather on mobile